Time;durP1;ratioP1;P1;durP2;ratioP2;P2;SDS_P1;SDS_P2;PMS_P1;PMS_P2;Temp;Humidity;BMP_temperature;BMP_pressure;BME280_temperature;BME280_humidity;BME280_pressure;Samples;Min_cycle;Max_cycle;Signal;HPM_P1;HPM_P2
2023/12/13 00:13:21;;;;;;;84.00;26.40;;;;;;;6.88;92.85;99481.83;675365;1257;139412;-87
2023/12/13 00:28:58;;;;;;;;;;;;;;;6.89;93.62;99483.41;676919;1259;139105;-87
2023/12/13 00:44:36;;;;;;;76.10;25.80;;;;;;;6.81;93.21;99487.88;675587;1256;125267;-87
2023/12/13 01:00:14;;;;;;;58.00;21.10;;;;;;;6.80;93.23;99485.05;675645;1260;138807;-85
2023/12/13 01:15:51;;;;;;;70.70;21.70;;;;;;;6.82;92.86;99480.20;676694;1261;138981;-87
2023/12/13 01:31:28;;;;;;;72.30;24.40;;;;;;;6.86;92.72;99464.41;678450;1263;139876;-88
2023/12/13 01:47:05;;;;;;;79.20;25.00;;;;;;;6.80;92.60;99449.02;678891;1260;140494;-88
2023/12/13 02:02:42;;;;;;;70.80;22.20;;;;;;;6.68;92.52;99451.50;676742;1263;138957;-87
2023/12/13 02:18:19;;;;;;;52.70;19.50;;;;;;;6.67;92.49;99436.80;673527;1262;139605;-86
2023/12/13 02:33:56;;;;;;;45.10;16.20;;;;;;;6.60;92.80;99425.61;668073;1262;10139241;-87
2023/12/13 02:49:33;;;;;;;60.60;21.20;;;;;;;6.55;92.97;99415.16;674792;1263;140025;-88
2023/12/13 03:05:12;;;;;;;45.70;16.70;;;;;;;6.50;92.11;99417.00;677426;1261;139494;-88
2023/12/13 03:20:49;;;;;;;41.00;16.10;;;;;;;6.44;92.63;99416.81;675940;1262;138870;-87
2023/12/13 03:36:26;;;;;;;43.70;15.40;;;;;;;6.42;92.10;99420.33;677118;1263;138932;-88
2023/12/13 03:52:03;;;;;;;40.80;16.20;;;;;;;6.40;91.72;99413.35;675275;1261;140581;-87
2023/12/13 04:07:40;;;;;;;38.10;15.90;;;;;;;6.30;91.59;99403.25;676561;1261;139607;-90
2023/12/13 04:23:17;;;;;;;36.60;14.50;;;;;;;6.16;91.74;99399.16;676813;1263;139626;-87
2023/12/13 04:38:54;;;;;;;35.60;15.30;;;;;;;6.23;92.25;99404.06;675436;1262;138689;-87
2023/12/13 04:54:31;;;;;;;42.90;16.20;;;;;;;6.16;92.31;99393.66;676470;1263;139848;-87
2023/12/13 05:10:12;;;;;;;195.00;77.10;;;;;;;6.03;91.92;99380.69;681255;1257;139082;-87
2023/12/13 05:25:51;;;;;;;;;;;;;;;6.09;92.29;99386.44;674903;1269;139936;-87
2023/12/13 05:41:27;;;;;;;43.20;18.90;;;;;;;6.07;92.30;99382.39;680831;1262;126435;-88
2023/12/13 05:57:04;;;;;;;60.70;26.10;;;;;;;6.09;91.88;99376.90;680763;1262;140343;-87
2023/12/13 06:12:42;;;;;;;52.40;22.30;;;;;;;5.94;91.20;99356.05;676687;1264;138766;-88
2023/12/13 06:28:21;;;;;;;36.10;15.10;;;;;;;5.79;92.72;99362.27;678384;1263;140040;-87
2023/12/13 06:43:58;;;;;;;47.70;18.80;;;;;;;5.70;92.59;99375.17;678434;1262;139868;-88
2023/12/13 06:59:37;;;;;;;146.70;59.60;;;;;;;5.74;92.30;99379.52;677906;1262;140059;-87
2023/12/13 07:15:15;;;;;;;104.60;39.40;;;;;;;5.89;92.11;99379.16;677191;1260;139946;-87
2023/12/13 07:30:52;;;;;;;50.00;21.70;;;;;;;5.98;92.29;99371.17;676543;1261;139829;-87
2023/12/13 07:46:39;;;;;;;41.30;19.20;;;;;;;6.01;92.48;99359.15;677612;1259;139451;-87
2023/12/13 08:02:20;;;;;;;;;;;;;;;6.17;92.31;99347.89;676215;1263;139351;-86
2023/12/13 08:18:07;;;;;;;95.80;41.10;;;;;;;6.18;92.40;99350.08;680377;1262;125826;-87
2023/12/13 08:33:50;;;;;;;117.00;36.70;;;;;;;6.35;92.46;99361.35;679760;1260;139812;-88
2023/12/13 08:49:27;;;;;;;47.30;19.30;;;;;;;6.58;91.94;99364.38;681655;1263;140202;-88
2023/12/13 09:05:04;;;;;;;51.60;21.10;;;;;;;6.67;91.61;99358.98;681231;1261;139508;-87
2023/12/13 09:20:41;;;;;;;55.80;21.70;;;;;;;6.75;91.74;99353.36;677793;1276;139125;-87
2023/12/13 09:36:52;;;;;;;43.80;18.60;;;;;;;7.03;91.41;99350.45;678099;1259;139307;-89
2023/12/13 09:52:32;;;;;;;41.10;17.20;;;;;;;7.11;91.78;99339.14;676489;1271;139443;-88
2023/12/13 10:08:11;;;;;;;98.50;41.90;;;;;;;7.19;91.69;99338.27;676202;1262;139305;-88
2023/12/13 10:23:48;;;;;;;47.70;19.90;;;;;;;7.22;91.02;99327.20;677305;1263;139725;-87
2023/12/13 10:39:28;;;;;;;41.00;16.60;;;;;;;7.31;91.16;99318.55;678289;1264;138602;-89
2023/12/13 10:55:05;;;;;;;44.40;16.60;;;;;;;7.42;91.15;99305.08;678181;1262;22413;-88
2023/12/13 11:10:45;;;;;;;29.80;12.40;;;;;;;7.51;90.80;99301.31;676595;1264;139294;-90
2023/12/13 11:26:24;;;;;;;45.90;20.20;;;;;;;7.32;90.30;99306.66;680514;1260;138391;-87
2023/12/13 11:42:25;;;;;;;57.00;23.70;;;;;;;7.44;89.72;99311.18;676597;1263;22604;-87
2023/12/13 11:58:03;;;;;;;62.90;30.80;;;;;;;7.35;89.90;99302.89;675148;1260;22239;-89
2023/12/13 12:13:43;;;;;;;46.70;21.20;;;;;;;7.30;89.85;99299.35;675450;1262;22888;-89
2023/12/13 12:29:19;;;;;;;49.00;23.20;;;;;;;7.49;90.00;99292.47;673261;1263;24392;-88
2023/12/13 12:44:56;;;;;;;236.50;68.70;;;;;;;7.45;89.57;99290.13;672922;1264;22907;-89
2023/12/13 13:00:36;;;;;;;128.10;44.00;;;;;;;7.37;89.45;99290.72;673242;1262;24871;-86
2023/12/13 13:16:14;;;;;;;88.80;34.30;;;;;;;7.22;89.49;99284.94;679687;1259;25294;-86
2023/12/13 13:31:51;;;;;;;104.60;40.10;;;;;;;7.28;89.67;99290.16;671240;1260;22080;-86
2023/12/13 13:47:28;;;;;;;201.90;53.50;;;;;;;7.00;90.02;99298.00;669788;1261;22638;-87
2023/12/13 14:03:06;;;;;;;107.00;44.10;;;;;;;7.00;90.23;99295.20;671542;1257;139621;-85
2023/12/13 14:18:44;;;;;;;69.20;28.50;;;;;;;6.91;90.09;99305.05;670847;1264;22744;-86
2023/12/13 14:34:21;;;;;;;176.20;58.50;;;;;;;6.88;90.38;99303.94;661617;1263;10213977;-86
2023/12/13 14:50:05;;;;;;;71.60;27.50;;;;;;;6.84;90.47;99302.92;670347;1262;22553;-86
2023/12/13 15:05:42;;;;;;;82.60;28.50;;;;;;;6.85;90.32;99315.52;671538;1263;25249;-86
2023/12/13 15:21:19;;;;;;;84.60;33.60;;;;;;;6.85;90.07;99324.02;673356;1263;22563;-86
2023/12/13 15:36:56;;;;;;;115.00;48.40;;;;;;;6.85;90.09;99317.95;670599;1262;139248;-88
2023/12/13 15:52:33;;;;;;;73.40;27.60;;;;;;;6.71;90.53;99310.64;670405;1274;140120;-87
2023/12/13 16:08:10;;;;;;;67.40;26.20;;;;;;;6.69;90.59;99314.45;670607;1259;22644;-87
2023/12/13 16:23:49;;;;;;;54.20;24.40;;;;;;;6.55;90.58;99319.65;672692;1261;22657;-86
2023/12/13 16:39:26;;;;;;;146.10;50.20;;;;;;;6.71;90.23;99318.29;669779;1263;138967;-87
2023/12/13 16:55:03;;;;;;;138.60;51.00;;;;;;;6.73;89.79;99317.58;672581;1262;139302;-87
2023/12/13 17:10:40;;;;;;;480.10;146.80;;;;;;;6.67;90.22;99329.25;673079;1262;139512;-87
2023/12/13 17:26:19;;;;;;;95.50;39.60;;;;;;;6.71;90.20;99336.52;672535;1262;139503;-87
2023/12/13 17:41:56;;;;;;;;;;;;;;;6.72;90.32;99349.16;674571;1262;22569;-87
2023/12/13 17:57:32;;;;;;;190.60;58.00;;;;;;;6.52;90.33;99344.41;671187;1275;22558;-87
2023/12/13 18:13:13;;;;;;;189.10;71.30;;;;;;;6.43;90.57;99348.14;670625;1275;23906;-86
2023/12/13 18:28:50;;;;;;;143.80;46.00;;;;;;;6.51;90.79;99357.90;672631;1260;140742;-87
2023/12/13 18:44:28;;;;;;;172.30;62.10;;;;;;;6.45;90.68;99371.90;673072;1263;22521;-86
2023/12/13 19:00:05;;;;;;;224.10;76.30;;;;;;;6.43;90.78;99374.73;672403;1259;139147;-87
2023/12/13 19:15:42;;;;;;;79.60;29.50;;;;;;;6.43;91.00;99374.91;669818;1262;22652;-87
2023/12/13 19:31:20;;;;;;;66.90;28.20;;;;;;;6.37;91.07;99383.00;672769;1262;22679;-87
2023/12/13 19:46:57;;;;;;;92.00;30.50;;;;;;;6.37;91.38;99390.02;671163;1274;139052;-87
2023/12/13 20:02:34;;;;;;;94.20;36.70;;;;;;;6.43;91.14;99393.65;672378;1262;23092;-90
2023/12/13 20:18:14;;;;;;;60.80;18.40;;;;;;;6.35;91.50;99396.09;675303;1260;22555;-87
2023/12/13 20:34:16;;;;;;;130.50;39.00;;;;;;;6.34;91.57;99398.95;673673;1262;25014;-86
2023/12/13 20:49:56;;;;;;;96.30;31.80;;;;;;;6.31;91.90;99402.27;673073;1260;23253;-87
2023/12/13 21:05:36;;;;;;;49.90;19.20;;;;;;;6.33;91.91;99406.43;672699;1275;22591;-85
2023/12/13 21:21:15;;;;;;;60.50;23.80;;;;;;;6.33;91.48;99412.36;678774;1275;139466;-87
2023/12/13 21:36:54;;;;;;;53.30;21.30;;;;;;;6.28;91.72;99427.19;677514;1263;139636;-86
2023/12/13 21:52:35;;;;;;;56.10;23.50;;;;;;;6.30;91.23;99446.30;678874;1262;140209;-87
2023/12/13 22:08:11;;;;;;;55.00;21.00;;;;;;;6.36;91.10;99466.80;671888;1257;140253;-85
2023/12/13 22:23:49;;;;;;;77.80;28.30;;;;;;;6.40;91.21;99478.30;675169;1262;139153;-86
2023/12/13 22:39:26;;;;;;;81.70;32.20;;;;;;;6.55;90.79;99481.25;677316;1262;139227;-86
2023/12/13 22:55:03;;;;;;;77.90;28.50;;;;;;;6.56;90.80;99489.16;674691;1262;140107;-85
2023/12/13 23:10:40;;;;;;;89.40;33.20;;;;;;;6.51;90.43;99496.50;679194;1263;139273;-88
2023/12/13 23:26:17;;;;;;;72.50;28.80;;;;;;;6.47;90.71;99507.58;678994;1258;139999;-86
2023/12/13 23:41:54;;;;;;;59.00;24.70;;;;;;;6.45;90.83;99519.23;676258;1259;139531;-88
2023/12/13 23:57:31;;;;;;;82.30;28.60;;;;;;;6.48;90.66;99526.63;675676;1263;139672;-85
